Time;durP1;ratioP1;P1;durP2;ratioP2;P2;SDS_P1;SDS_P2;PMS_P1;PMS_P2;Temp;Humidity;BMP_temperature;BMP_pressure;BME280_temperature;BME280_humidity;BME280_pressure;Samples;Min_cycle;Max_cycle;Signal;HPM_P1;HPM_P2
2021/03/21 00:00:34;;;;;;;6.97;3.60;;;1.40;98.50;;;;;;5015884;28;20456;-90
2021/03/21 00:03:03;;;;;;;3.40;1.50;;;2.10;98.50;;;;;;5016164;28;21055;-93
2021/03/21 00:05:30;;;;;;;5.33;3.20;;;1.50;98.90;;;;;;5015990;28;20466;-94
2021/03/21 00:07:59;;;;;;;5.53;2.90;;;1.70;95.40;;;;;;5009222;28;20502;-91
2021/03/21 00:10:28;;;;;;;3.63;3.10;;;1.60;90.00;;;;;;5015421;28;20460;-92
2021/03/21 00:12:55;;;;;;;3.47;1.90;;;;;;;;;;5014289;28;21018;-90
2021/03/21 00:15:23;;;;;;;2.30;1.70;;;1.60;89.20;;;;;;5015173;28;20503;-91
2021/03/21 00:17:49;;;;;;;4.53;3.47;;;1.40;95.10;;;;;;5015682;28;21001;-90
2021/03/21 00:20:22;;;;;;;3.07;2.77;;;1.50;98.60;;;;;;5015257;28;20447;-89
2021/03/21 00:22:48;;;;;;;4.47;2.47;;;1.50;95.30;;;;;;5014725;28;20480;-90
2021/03/21 00:25:19;;;;;;;3.60;2.23;;;1.50;95.50;;;;;;5014748;28;20456;-90
2021/03/21 00:27:45;;;;;;;4.20;2.53;;;1.50;95.10;;;;;;5013687;28;20500;-90
2021/03/21 00:30:16;;;;;;;2.80;2.20;;;1.50;93.10;;;;;;5014956;28;20862;-89
2021/03/21 00:32:43;;;;;;;2.47;1.53;;;1.90;94.50;;;;;;5015138;28;20467;-93
2021/03/21 00:35:13;;;;;;;3.03;1.90;;;1.50;98.70;;;;;;5015093;28;20437;-89
2021/03/21 00:37:41;;;;;;;6.07;2.70;;;1.40;96.90;;;;;;5014996;28;20452;-92
2021/03/21 00:40:11;;;;;;;6.73;4.20;;;1.60;98.40;;;;;;5011949;28;20471;-92
2021/03/21 00:42:38;;;;;;;4.97;3.57;;;1.70;90.60;;;;;;5013921;28;20444;-91
2021/03/21 00:45:06;;;;;;;4.10;3.03;;;1.70;95.70;;;;;;5014299;28;20452;-91
2021/03/21 00:47:33;;;;;;;3.23;2.80;;;1.70;97.70;;;;;;5012074;28;20464;-90
2021/03/21 00:50:00;;;;;;;3.70;2.40;;;1.40;99.00;;;;;;5012486;28;20460;-91
2021/03/21 00:52:27;;;;;;;2.53;1.50;;;;;;;;;;5014629;28;20451;-89
2021/03/21 00:54:53;;;;;;;5.00;3.33;;;1.40;95.60;;;;;;5013715;28;20456;-90
2021/03/21 00:57:20;;;;;;;1.10;0.80;;;;;;;;;;5014114;28;20932;-89
2021/03/21 00:59:46;;;;;;;4.57;1.33;;;1.30;96.20;;;;;;5014645;28;20456;-90
2021/03/21 01:02:13;;;;;;;5.80;3.53;;;;;;;;;;5014968;28;20463;-89
2021/03/21 01:04:39;;;;;;;5.47;2.80;;;1.50;97.80;;;;;;5014680;28;20448;-91
2021/03/21 01:07:06;;;;;;;2.17;1.50;;;1.60;91.00;;;;;;5014648;28;20530;-91
2021/03/21 01:09:33;;;;;;;6.03;4.20;;;1.60;99.80;;;;;;5014478;28;20528;-90
2021/03/21 01:12:00;;;;;;;4.40;2.53;;;;;;;;;;5014739;28;20447;-91
2021/03/21 01:14:26;;;;;;;5.70;3.10;;;1.40;99.50;;;;;;5011900;28;20464;-90
2021/03/21 01:16:52;;;;;;;6.60;3.67;;;1.40;96.60;;;;;;5011563;28;20495;-92
2021/03/21 01:19:20;;;;;;;5.70;3.50;;;1.60;92.60;;;;;;5014485;28;20948;-89
2021/03/21 01:21:48;;;;;;;6.10;2.77;;;1.70;98.00;;;;;;5014332;28;20480;-89
2021/03/21 01:24:18;;;;;;;15.43;2.90;;;1.40;99.60;;;;;;5014127;28;20466;-89
2021/03/21 01:26:44;;;;;;;3.40;2.57;;;1.60;99.50;;;;;;5013532;28;20533;-89
2021/03/21 01:29:11;;;;;;;4.33;2.93;;;1.40;97.60;;;;;;5014156;28;20456;-91
2021/03/21 01:31:37;;;;;;;2.23;1.97;;;2.10;98.50;;;;;;5014176;28;20448;-89
2021/03/21 01:34:03;;;;;;;7.40;2.83;;;1.50;95.90;;;;;;5014145;28;20444;-90
2021/03/21 01:36:36;;;;;;;3.17;2.50;;;1.40;98.60;;;;;;5014553;28;20488;-88
2021/03/21 01:39:07;;;;;;;2.23;1.80;;;1.60;95.90;;;;;;5014571;28;20444;-90
2021/03/21 01:41:40;;;;;;;3.27;2.07;;;1.50;90.50;;;;;;5011349;28;20452;-89
2021/03/21 01:44:08;;;;;;;2.40;1.53;;;1.80;95.40;;;;;;5014093;28;20473;-89
2021/03/21 01:47:00;;;;;;;3.10;2.47;;;1.60;98.90;;;;;;5010851;28;20440;-89
2021/03/21 01:49:31;;;;;;;3.73;2.00;;;1.50;98.70;;;;;;5013695;28;20444;-90
2021/03/21 01:51:58;;;;;;;1.90;1.70;;;1.50;90.80;;;;;;5013955;28;20484;-89
2021/03/21 01:54:25;;;;;;;3.80;2.73;;;1.30;98.30;;;;;;5014040;28;20482;-92
2021/03/21 01:56:56;;;;;;;2.67;2.10;;;1.30;98.30;;;;;;5013292;28;20495;-91
2021/03/21 01:59:25;;;;;;;10.63;3.40;;;1.40;95.90;;;;;;5013698;28;20454;-91
2021/03/21 02:01:53;;;;;;;2.70;1.77;;;1.40;99.10;;;;;;5013978;28;20448;-89
2021/03/21 02:04:20;;;;;;;2.53;2.33;;;1.60;95.50;;;;;;5013820;28;20467;-89
2021/03/21 02:07:03;;;;;;;2.27;1.50;;;1.50;99.20;;;;;;5012130;28;20460;-91
2021/03/21 02:09:36;;;;;;;5.47;2.50;;;1.10;99.10;;;;;;5012355;28;20923;-88
2021/03/21 02:12:17;;;;;;;4.43;2.93;;;1.60;98.90;;;;;;5013217;28;20535;-88
2021/03/21 02:14:50;;;;;;;4.57;2.10;;;1.50;91.20;;;;;;5014265;28;20454;-90
2021/03/21 02:17:21;;;;;;;2.10;0.90;;;2.00;99.00;;;;;;5014000;28;20500;-91
2021/03/21 02:20:27;;;;;;;2.70;1.40;;;1.50;91.30;;;;;;5013070;28;20444;-90
2021/03/21 02:22:58;;;;;;;6.67;3.40;;;1.50;91.60;;;;;;5011318;28;20483;-91
2021/03/21 02:25:40;;;;;;;3.10;2.30;;;1.30;91.80;;;;;;5014329;28;20456;-88
2021/03/21 02:28:37;;;;;;;3.53;2.60;;;1.50;91.30;;;;;;5017513;28;20482;-87
2021/03/21 02:31:09;;;;;;;3.20;2.50;;;1.50;91.30;;;;;;5018094;28;20895;-90
2021/03/21 02:33:43;;;;;;;3.17;2.47;;;1.50;91.40;;;;;;5014895;28;20464;-88
2021/03/21 02:36:14;;;;;;;2.80;1.83;;;1.50;91.20;;;;;;5018974;28;20498;-90
2021/03/21 02:38:47;;;;;;;10.83;1.93;;;1.50;91.00;;;;;;5019740;28;20436;-89
2021/03/21 02:41:20;;;;;;;2.20;1.53;;;1.50;91.10;;;;;;5018649;28;20455;-88
2021/03/21 02:43:49;;;;;;;4.17;3.17;;;1.50;91.00;;;;;;5018441;28;20506;-89
2021/03/21 02:46:27;;;;;;;1.87;1.20;;;1.50;95.60;;;;;;5015484;28;20881;-92
2021/03/21 02:48:58;;;;;;;2.47;1.20;;;1.40;98.40;;;;;;5012826;28;20432;-88
2021/03/21 02:51:27;;;;;;;4.30;2.70;;;1.70;99.40;;;;;;5012992;28;20451;-90
2021/03/21 02:53:57;;;;;;;8.23;2.97;;;1.50;91.40;;;;;;5013273;28;20887;-90
2021/03/21 02:56:26;;;;;;;4.30;3.03;;;1.50;91.70;;;;;;5010175;28;20495;-91
2021/03/21 02:58:58;;;;;;;1.57;1.47;;;1.50;91.60;;;;;;5013252;28;20462;-89
2021/03/21 03:01:29;;;;;;;3.50;1.93;;;1.50;91.40;;;;;;5012888;28;20445;-90
2021/03/21 03:04:00;;;;;;;4.83;3.10;;;1.60;91.70;;;;;;5010035;28;20931;-90
2021/03/21 03:06:30;;;;;;;3.70;2.53;;;1.50;91.80;;;;;;5012979;28;20448;-91
2021/03/21 03:09:03;;;;;;;6.33;3.00;;;1.60;92.00;;;;;;5012989;28;20444;-91
2021/03/21 03:11:36;;;;;;;3.90;3.07;;;1.50;91.90;;;;;;5012186;28;20452;-91
2021/03/21 03:14:05;;;;;;;3.90;1.63;;;1.50;92.00;;;;;;5011826;28;20445;-90
2021/03/21 03:16:40;;;;;;;3.40;2.57;;;1.50;91.80;;;;;;5014041;28;20492;-89
2021/03/21 03:19:16;;;;;;;4.73;2.83;;;1.50;92.00;;;;;;5013251;28;20452;-88
2021/03/21 03:21:49;;;;;;;5.07;2.87;;;1.50;92.90;;;;;;5013079;28;20479;-89
2021/03/21 03:24:23;;;;;;;3.30;2.30;;;1.60;92.70;;;;;;5012592;28;20448;-91
2021/03/21 03:26:55;;;;;;;4.33;3.07;;;1.50;92.70;;;;;;5012293;28;20546;-88
2021/03/21 03:29:27;;;;;;;4.53;3.00;;;1.50;92.60;;;;;;5013105;28;20452;-90
2021/03/21 03:31:56;;;;;;;4.30;3.20;;;1.50;92.60;;;;;;5010852;28;20475;-90
2021/03/21 03:34:24;;;;;;;6.40;3.00;;;1.50;92.90;;;;;;5016360;28;20459;-89
2021/03/21 03:36:50;;;;;;;3.90;3.10;;;1.50;93.10;;;;;;5016400;28;20601;-89
2021/03/21 03:39:16;;;;;;;6.00;2.70;;;1.50;93.20;;;;;;5012770;28;20456;-88
2021/03/21 03:41:44;;;;;;;1.77;1.20;;;1.50;93.30;;;;;;5015326;28;20453;-91
2021/03/21 03:44:26;;;;;;;6.00;3.77;;;1.40;99.90;;;;;;5016031;28;20517;-89
2021/03/21 03:46:59;;;;;;;3.87;2.50;;;1.40;93.70;;;;;;5015967;28;20452;-89
2021/03/21 03:49:38;;;;;;;6.77;3.17;;;1.50;99.90;;;;;;5016210;28;20849;-90
2021/03/21 03:52:27;;;;;;;4.40;2.77;;;1.50;99.90;;;;;;5013181;28;20471;-90
2021/03/21 03:55:02;;;;;;;4.60;3.03;;;1.50;99.90;;;;;;5015875;28;20462;-90
2021/03/21 03:57:34;;;;;;;5.30;3.30;;;1.40;94.00;;;;;;5014789;28;20498;-89
2021/03/21 04:00:19;;;;;;;3.60;3.00;;;1.00;99.90;;;;;;5015986;28;20451;-89
2021/03/21 04:02:57;;;;;;;4.40;2.80;;;0.90;99.90;;;;;;5015776;28;20456;-89
2021/03/21 04:05:31;;;;;;;6.13;3.53;;;1.40;94.60;;;;;;5012593;28;20518;-91
2021/03/21 04:08:03;;;;;;;4.53;2.70;;;1.40;94.80;;;;;;5015698;28;20448;-89
2021/03/21 04:10:36;;;;;;;3.40;3.10;;;1.40;94.70;;;;;;5015739;28;20515;-89
2021/03/21 04:13:10;;;;;;;4.10;2.90;;;1.40;94.90;;;;;;5014316;28;20522;-88
2021/03/21 04:15:40;;;;;;;2.70;2.20;;;1.50;95.10;;;;;;5015338;28;20554;-89
2021/03/21 04:18:12;;;;;;;4.00;2.83;;;1.40;95.00;;;;;;5015298;28;20922;-88
2021/03/21 04:20:43;;;;;;;3.73;2.87;;;1.40;95.40;;;;;;5015350;28;20931;-89
2021/03/21 04:23:13;;;;;;;3.60;3.23;;;1.40;95.40;;;;;;5015361;28;21063;-90
2021/03/21 04:25:44;;;;;;;5.67;3.70;;;1.40;95.90;;;;;;5015276;28;21041;-89
2021/03/21 04:28:16;;;;;;;3.20;2.90;;;1.50;96.00;;;;;;5014830;28;20437;-90
2021/03/21 04:30:46;;;;;;;4.80;3.70;;;1.50;95.70;;;;;;5015248;28;20440;-90
2021/03/21 04:33:17;;;;;;;6.10;3.87;;;1.50;95.60;;;;;;5015199;28;20546;-89
2021/03/21 04:35:48;;;;;;;5.67;3.33;;;1.50;95.80;;;;;;5015200;28;20471;-89
2021/03/21 04:38:17;;;;;;;4.67;3.23;;;1.40;95.80;;;;;;5015070;28;20453;-90
2021/03/21 04:40:45;;;;;;;4.80;3.40;;;1.40;96.10;;;;;;5012022;28;20453;-89
2021/03/21 04:43:15;;;;;;;4.23;3.43;;;1.50;96.10;;;;;;5013132;28;20452;-89
2021/03/21 04:45:46;;;;;;;3.93;3.00;;;1.50;96.30;;;;;;5014132;28;20449;-91
2021/03/21 04:48:17;;;;;;;12.17;3.30;;;1.50;96.00;;;;;;5014728;28;20448;-92
2021/03/21 04:50:44;;;;;;;3.77;3.40;;;1.50;96.10;;;;;;5014874;28;20594;-91
2021/03/21 04:53:18;;;;;;;5.33;3.53;;;1.50;96.80;;;;;;5014889;28;20449;-89
2021/03/21 04:55:49;;;;;;;3.10;2.80;;;1.50;96.20;;;;;;5014296;28;20545;-91
2021/03/21 04:58:26;;;;;;;3.00;1.87;;;1.60;96.30;;;;;;5014010;28;20511;-89
2021/03/21 05:00:56;;;;;;;3.13;1.90;;;1.50;96.30;;;;;;5014757;28;20456;-89
2021/03/21 05:03:29;;;;;;;5.70;3.43;;;1.50;96.60;;;;;;5014511;28;20567;-90
2021/03/21 05:06:00;;;;;;;4.30;2.70;;;1.40;96.90;;;;;;5014464;28;20476;-91
2021/03/21 05:08:33;;;;;;;6.10;3.50;;;1.50;97.00;;;;;;5013520;28;20440;-89
2021/03/21 05:11:03;;;;;;;4.07;3.27;;;1.40;97.50;;;;;;5014156;28;20476;-89
2021/03/21 05:13:34;;;;;;;4.20;3.57;;;1.40;97.70;;;;;;5014336;28;20562;-88
2021/03/21 05:16:07;;;;;;;4.90;3.33;;;1.50;97.70;;;;;;5014444;28;20472;-90
2021/03/21 05:18:40;;;;;;;3.63;3.13;;;1.40;97.50;;;;;;5014542;28;20455;-88
2021/03/21 05:21:12;;;;;;;8.23;2.60;;;1.50;97.30;;;;;;5011140;28;20495;-90
2021/03/21 05:23:46;;;;;;;4.60;3.43;;;1.40;97.40;;;;;;5014132;28;20498;-93
2021/03/21 05:26:19;;;;;;;6.13;3.30;;;1.40;97.70;;;;;;5012998;28;20487;-90
2021/03/21 05:28:55;;;;;;;4.80;3.63;;;1.50;97.50;;;;;;5014074;28;20453;-91
2021/03/21 05:31:22;;;;;;;4.83;3.63;;;1.60;97.90;;;;;;5015534;28;20444;-91
2021/03/21 05:33:50;;;;;;;3.70;2.73;;;1.60;97.90;;;;;;5015401;28;20456;-91
2021/03/21 05:36:29;;;;;;;4.20;3.17;;;1.60;97.30;;;;;;5014186;28;21002;-89
2021/03/21 05:38:58;;;;;;;5.67;3.50;;;1.50;97.30;;;;;;5014378;28;20440;-89
2021/03/21 05:42:03;;;;;;;2.27;1.60;;;1.60;97.70;;;;;;5013828;28;20440;-90
2021/03/21 05:44:59;;;;;;;3.80;3.40;;;1.50;97.30;;;;;;5013732;28;20606;-93
2021/03/21 05:47:52;;;;;;;6.40;3.80;;;1.50;97.60;;;;;;5014535;28;20448;-89
2021/03/21 05:51:06;;;;;;;4.70;3.37;;;1.50;97.60;;;;;;5014430;28;20448;-90
2021/03/21 05:54:02;;;;;;;8.90;2.70;;;1.60;98.20;;;;;;5013644;28;20455;-90
2021/03/21 05:57:05;;;;;;;5.20;3.00;;;1.60;98.20;;;;;;5009475;28;20514;-91
2021/03/21 05:59:51;;;;;;;7.17;3.57;;;1.60;98.20;;;;;;5013187;28;20471;-93
2021/03/21 06:02:44;;;;;;;2.67;2.10;;;1.60;98.30;;;;;;5013439;28;20532;-91
2021/03/21 06:05:37;;;;;;;3.87;3.10;;;1.60;98.00;;;;;;5013050;28;20962;-89
2021/03/21 06:08:27;;;;;;;4.50;3.10;;;1.60;98.40;;;;;;5013450;28;20452;-90
2021/03/21 06:11:33;;;;;;;4.70;2.93;;;1.70;98.10;;;;;;5013268;28;20447;-89
2021/03/21 06:14:37;;;;;;;5.27;3.07;;;1.60;98.30;;;;;;5010553;28;20533;-90
2021/03/21 06:17:25;;;;;;;3.80;3.20;;;1.60;98.70;;;;;;5013346;28;20500;-88
2021/03/21 06:20:18;;;;;;;1.30;1.20;;;1.60;98.80;;;;;;5012715;28;20977;-90
2021/03/21 06:23:10;;;;;;;2.63;2.43;;;1.60;98.50;;;;;;5014018;28;20488;-91
2021/03/21 06:26:02;;;;;;;1.60;1.20;;;1.60;98.70;;;;;;5015204;28;20987;-88
2021/03/21 06:28:52;;;;;;;4.40;2.37;;;1.60;98.50;;;;;;5015062;28;20454;-91
2021/03/21 06:31:52;;;;;;;4.00;2.90;;;1.60;98.40;;;;;;5013597;28;20459;-89
2021/03/21 06:34:26;;;;;;;5.07;3.10;;;1.70;98.70;;;;;;5013033;28;20448;-89
2021/03/21 06:36:59;;;;;;;5.43;3.87;;;1.70;98.70;;;;;;5013189;28;20487;-87
2021/03/21 06:40:00;;;;;;;5.67;3.40;;;1.70;98.50;;;;;;5010392;28;20820;-90
2021/03/21 06:43:03;;;;;;;3.40;2.27;;;1.70;98.60;;;;;;5012466;28;20460;-89
2021/03/21 06:46:09;;;;;;;5.20;3.37;;;1.70;98.40;;;;;;5010110;28;20460;-90
2021/03/21 06:49:03;;;;;;;3.27;2.87;;;1.80;98.60;;;;;;5012746;28;20455;-89
2021/03/21 06:51:40;;;;;;;4.40;3.57;;;1.80;98.40;;;;;;5013746;28;20449;-91
2021/03/21 06:54:44;;;;;;;4.40;3.23;;;1.90;98.20;;;;;;5013980;28;20428;-90
2021/03/21 06:58:11;;;;;;;4.13;2.90;;;1.90;98.10;;;;;;5013036;28;20468;-92
2021/03/21 07:01:00;;;;;;;11.50;8.57;;;2.00;99.00;;;;;;5013567;28;20448;-92
2021/03/21 07:04:08;;;;;;;7.50;6.63;;;2.00;98.50;;;;;;5013965;28;20456;-90
2021/03/21 07:07:23;;;;;;;7.03;3.37;;;2.00;98.20;;;;;;5015517;28;20486;-91
2021/03/21 07:10:43;;;;;;;5.80;3.87;;;2.00;98.30;;;;;;5026262;28;20432;-89
2021/03/21 07:13:48;;;;;;;2.93;1.97;;;2.10;98.90;;;;;;5004607;28;20454;-90
2021/03/21 07:16:52;;;;;;;4.23;2.63;;;2.00;98.30;;;;;;5036730;28;20474;-91
2021/03/21 07:19:46;;;;;;;4.23;3.47;;;2.10;98.40;;;;;;5033976;28;20473;-90
2021/03/21 07:22:44;;;;;;;4.23;3.40;;;2.10;98.80;;;;;;5033441;28;20471;-90
2021/03/21 07:25:40;;;;;;;4.23;3.40;;;2.10;98.10;;;;;;5036780;28;20459;-93
2021/03/21 07:28:32;;;;;;;2.40;2.00;;;2.20;98.50;;;;;;5035655;28;20462;-90
2021/03/21 07:31:17;;;;;;;5.70;3.73;;;2.10;98.00;;;;;;5037392;28;20448;-93
2021/03/21 07:34:03;;;;;;;3.67;3.10;;;2.20;98.40;;;;;;5038431;28;20511;-93
2021/03/21 07:36:39;;;;;;;6.60;3.63;;;2.20;98.40;;;;;;5031903;28;20490;-92
2021/03/21 07:39:25;;;;;;;5.20;3.57;;;2.10;98.70;;;;;;5034540;28;20462;-90
2021/03/21 07:42:12;;;;;;;5.20;3.10;;;2.20;98.80;;;;;;5037152;28;20451;-92
2021/03/21 07:45:11;;;;;;;4.53;3.40;;;2.30;98.90;;;;;;5035999;28;20465;-91
2021/03/21 07:47:53;;;;;;;4.17;2.53;;;2.30;98.70;;;;;;5037005;28;20472;-93
2021/03/21 07:50:39;;;;;;;4.40;2.50;;;2.30;98.40;;;;;;5036329;28;20446;-91
2021/03/21 07:53:21;;;;;;;5.10;3.20;;;2.30;98.50;;;;;;5036610;28;20443;-92
2021/03/21 07:55:53;;;;;;;6.90;3.53;;;2.40;99.40;;;;;;5030782;28;20446;-92
2021/03/21 07:58:26;;;;;;;4.03;3.03;;;2.40;98.70;;;;;;5036484;28;20447;-92
2021/03/21 08:00:53;;;;;;;9.93;6.03;;;2.40;98.80;;;;;;5036647;28;20447;-91
2021/03/21 08:03:46;;;;;;;3.87;3.00;;;2.60;99.00;;;;;;5043546;28;20440;-91
2021/03/21 08:06:19;;;;;;;4.60;3.63;;;2.60;98.90;;;;;;5041610;28;20439;-89
2021/03/21 08:08:56;;;;;;;5.63;3.83;;;2.60;99.30;;;;;;5029849;28;20518;-90
2021/03/21 08:11:28;;;;;;;3.77;3.10;;;2.60;99.30;;;;;;5031658;28;20439;-89
2021/03/21 08:14:02;;;;;;;3.00;2.53;;;2.60;99.10;;;;;;5035392;28;20459;-89
2021/03/21 08:16:37;;;;;;;6.80;3.53;;;2.60;99.10;;;;;;5035468;28;20822;-90
2021/03/21 08:19:03;;;;;;;4.20;2.83;;;2.60;99.30;;;;;;5031285;28;20474;-88
2021/03/21 08:21:32;;;;;;;5.93;3.67;;;2.70;99.60;;;;;;5035409;28;20947;-88
2021/03/21 08:24:02;;;;;;;2.87;2.23;;;2.80;98.90;;;;;;5035895;28;21054;-89
2021/03/21 08:26:31;;;;;;;4.90;4.00;;;2.70;99.00;;;;;;5034208;28;20447;-89
2021/03/21 08:29:01;;;;;;;3.40;3.10;;;2.80;98.90;;;;;;5035195;28;20452;-90
2021/03/21 08:31:29;;;;;;;7.30;3.33;;;2.70;99.10;;;;;;5031111;28;20455;-87
2021/03/21 08:34:29;;;;;;;3.63;3.10;;;2.90;99.40;;;;;;5035108;28;20454;-88
2021/03/21 08:36:57;;;;;;;4.30;2.43;;;3.00;99.30;;;;;;5031855;28;20579;-89
2021/03/21 08:39:31;;;;;;;4.83;2.80;;;2.80;98.70;;;;;;5035193;28;20509;-88
2021/03/21 08:41:59;;;;;;;5.80;3.60;;;2.90;99.10;;;;;;5033847;28;20462;-89
2021/03/21 08:44:31;;;;;;;5.67;3.60;;;3.00;99.20;;;;;;5034948;28;20459;-87
2021/03/21 08:46:58;;;;;;;5.90;4.53;;;3.10;99.70;;;;;;5031747;28;20452;-88
2021/03/21 08:49:27;;;;;;;4.47;2.90;;;3.40;99.40;;;;;;5031818;28;20442;-89
2021/03/21 08:51:53;;;;;;;5.10;2.57;;;3.20;99.00;;;;;;5034851;28;20505;-87
2021/03/21 08:54:26;;;;;;;5.07;3.47;;;3.10;99.30;;;;;;5034978;28;20946;-88
2021/03/21 08:57:02;;;;;;;2.60;2.13;;;3.20;99.60;;;;;;5030964;28;20527;-89
2021/03/21 08:59:36;;;;;;;3.47;2.20;;;3.10;99.30;;;;;;5031081;28;20487;-86
2021/03/21 09:02:07;;;;;;;4.00;2.70;;;3.00;99.60;;;;;;5031733;28;20946;-89
2021/03/21 09:04:42;;;;;;;6.23;2.93;;;3.10;99.00;;;;;;5035119;28;20556;-91
2021/03/21 09:07:23;;;;;;;3.00;2.20;;;3.20;99.00;;;;;;5034878;28;20474;-88
2021/03/21 09:10:09;;;;;;;6.20;2.83;;;3.20;98.60;;;;;;5034323;28;20459;-88
2021/03/21 09:12:38;;;;;;;3.03;1.63;;;3.20;98.40;;;;;;5032860;28;20444;-86
2021/03/21 09:15:24;;;;;;;2.80;1.97;;;3.20;97.70;;;;;;5030845;28;20447;-87
2021/03/21 09:18:26;;;;;;;5.20;3.03;;;3.30;98.10;;;;;;5034095;28;20498;-91
2021/03/21 09:21:16;;;;;;;5.07;3.23;;;3.40;98.10;;;;;;5033959;28;20541;-87
2021/03/21 09:23:48;;;;;;;2.87;1.70;;;3.30;98.00;;;;;;5033658;28;20475;-87
2021/03/21 09:26:33;;;;;;;3.43;2.60;;;3.30;97.80;;;;;;5032571;28;20930;-88
2021/03/21 09:29:16;;;;;;;5.70;3.27;;;3.50;99.90;;;;;;5033285;28;20473;-88
2021/03/21 09:31:43;;;;;;;4.50;3.57;;;3.50;99.90;;;;;;5030540;28;20459;-87
2021/03/21 09:34:13;;;;;;;1.60;1.33;;;3.40;98.20;;;;;;5033498;28;20457;-87
2021/03/21 09:36:45;;;;;;;2.57;2.00;;;3.40;97.70;;;;;;5033423;28;20479;-88
2021/03/21 09:39:17;;;;;;;3.80;2.60;;;3.30;97.90;;;;;;5033540;28;20447;-88
2021/03/21 09:41:48;;;;;;;2.70;2.07;;;3.40;98.00;;;;;;5032337;28;20448;-88
2021/03/21 09:44:33;;;;;;;5.03;3.23;;;3.50;97.80;;;;;;5033661;28;20453;-89
2021/03/21 09:47:09;;;;;;;5.60;3.53;;;3.50;97.80;;;;;;5034161;28;20456;-90
2021/03/21 09:49:48;;;;;;;3.57;3.10;;;3.60;98.00;;;;;;5033563;28;21066;-87
2021/03/21 09:52:24;;;;;;;4.97;3.30;;;3.60;97.60;;;;;;5033697;28;20447;-88
2021/03/21 09:54:57;;;;;;;7.00;5.07;;;3.60;97.90;;;;;;5033347;28;20455;-89
2021/03/21 09:57:48;;;;;;;3.37;2.93;;;3.60;97.50;;;;;;5032109;28;20495;-87
2021/03/21 10:00:18;;;;;;;4.37;3.63;;;3.60;97.50;;;;;;5033383;28;20466;-88
2021/03/21 10:02:47;;;;;;;6.17;3.50;;;3.80;97.70;;;;;;5028682;28;20463;-88
2021/03/21 10:05:28;;;;;;;5.23;3.60;;;3.90;97.60;;;;;;5029819;28;20447;-88
2021/03/21 10:08:11;;;;;;;6.40;4.10;;;3.90;97.50;;;;;;5029305;28;20451;-89
2021/03/21 10:10:41;;;;;;;7.10;3.63;;;4.10;97.50;;;;;;5032807;28;20447;-91
2021/03/21 10:13:10;;;;;;;4.17;3.20;;;4.20;97.40;;;;;;5029723;28;20443;-89
2021/03/21 10:16:10;;;;;;;5.30;3.77;;;4.20;96.60;;;;;;5033110;28;20439;-90
2021/03/21 10:18:42;;;;;;;4.83;3.50;;;4.20;97.00;;;;;;5033595;28;20923;-89
2021/03/21 10:21:10;;;;;;;6.20;4.57;;;4.40;97.00;;;;;;5033544;28;20467;-90
2021/03/21 10:24:12;;;;;;;8.37;5.60;;;4.30;97.10;;;;;;5014446;28;20975;-89
2021/03/21 10:27:23;;;;;;;6.10;4.47;;;4.30;99.90;;;;;;5012772;28;20458;-89
2021/03/21 10:30:03;;;;;;;8.20;6.43;;;4.20;99.90;;;;;;4994310;28;20551;-90
2021/03/21 10:32:31;;;;;;;8.37;6.37;;;4.50;99.90;;;;;;5012931;28;20464;-88
2021/03/21 10:34:58;;;;;;;10.70;2.40;;;4.60;99.90;;;;;;5012800;28;20467;-89
2021/03/21 10:37:50;;;;;;;5.20;3.70;;;4.60;99.90;;;;;;5013066;28;20546;-86
2021/03/21 10:40:44;;;;;;;8.40;5.40;;;4.60;99.90;;;;;;5013125;28;20530;-87
2021/03/21 10:43:46;;;;;;;9.20;5.73;;;4.90;99.90;;;;;;5015671;28;20455;-88
2021/03/21 10:46:45;;;;;;;8.17;6.47;;;4.90;99.90;;;;;;5017284;28;20860;-88
2021/03/21 10:49:11;;;;;;;9.77;6.17;;;5.10;99.90;;;;;;5017377;28;20458;-89
2021/03/21 10:52:17;;;;;;;7.60;5.57;;;4.90;99.90;;;;;;5017590;28;20810;-89
2021/03/21 10:54:44;;;;;;;10.30;6.53;;;4.80;99.90;;;;;;5016620;28;20800;-88
2021/03/21 10:57:35;;;;;;;10.10;6.97;;;4.90;99.90;;;;;;5014250;28;20507;-88
2021/03/21 11:00:12;;;;;;;12.13;8.60;;;5.00;99.90;;;;;;5016731;28;20774;-89
2021/03/21 11:02:41;;;;;;;9.37;7.33;;;4.80;99.90;;;;;;5016506;28;20506;-90
2021/03/21 11:05:22;;;;;;;11.63;8.37;;;4.90;99.90;;;;;;5016862;28;20479;-88
2021/03/21 11:07:48;;;;;;;12.13;8.37;;;4.70;99.90;;;;;;5015834;28;20459;-88
2021/03/21 11:10:14;;;;;;;13.13;9.67;;;4.50;99.90;;;;;;5016591;28;20502;-88
2021/03/21 11:12:43;;;;;;;11.57;8.63;;;4.70;99.90;;;;;;5012708;28;20460;-90
2021/03/21 11:15:26;;;;;;;10.43;8.00;;;4.90;99.90;;;;;;5016563;28;20448;-90
2021/03/21 11:17:53;;;;;;;12.63;8.50;;;5.00;99.90;;;;;;5013642;28;20538;-91
2021/03/21 11:20:26;;;;;;;11.37;7.87;;;5.50;99.90;;;;;;5017531;28;20483;-90
2021/03/21 11:22:53;;;;;;;13.43;7.97;;;5.30;99.90;;;;;;5030792;28;20514;-89
2021/03/21 11:25:31;;;;;;;9.30;4.73;;;5.30;99.90;;;;;;5034624;28;20455;-88
2021/03/21 11:27:57;;;;;;;9.77;5.90;;;5.20;99.90;;;;;;5036601;28;20459;-89
2021/03/21 11:30:29;;;;;;;12.30;8.80;;;5.10;99.90;;;;;;5034877;28;20447;-89
2021/03/21 11:33:14;;;;;;;9.30;7.47;;;5.20;99.90;;;;;;5038222;28;20562;-88
2021/03/21 11:35:41;;;;;;;8.70;7.10;;;5.20;99.90;;;;;;5038561;28;20447;-89
2021/03/21 11:38:28;;;;;;;4.90;3.20;;;5.30;99.90;;;;;;5035055;28;20487;-90
2021/03/21 11:40:56;;;;;;;9.37;6.73;;;5.30;99.90;;;;;;5037091;28;20435;-91
2021/03/21 11:43:26;;;;;;;9.63;5.10;;;5.30;99.90;;;;;;5033146;28;20557;-90
2021/03/21 11:45:53;;;;;;;9.27;6.60;;;5.20;99.90;;;;;;5032219;28;20478;-90
2021/03/21 11:48:33;;;;;;;7.27;6.20;;;5.20;99.90;;;;;;5036225;28;20973;-90
2021/03/21 11:51:04;;;;;;;8.70;6.80;;;5.50;99.90;;;;;;5028825;28;20446;-90
2021/03/21 11:53:36;;;;;;;8.50;6.03;;;5.70;99.90;;;;;;5032426;28;20938;-89
2021/03/21 11:56:10;;;;;;;8.37;6.20;;;5.60;99.90;;;;;;5034871;28;20470;-89
2021/03/21 11:58:41;;;;;;;9.30;5.93;;;5.50;99.90;;;;;;5035863;28;20443;-89
2021/03/21 12:01:18;;;;;;;8.10;5.80;;;5.50;99.90;;;;;;5035596;28;20479;-90
2021/03/21 12:03:49;;;;;;;7.37;4.80;;;5.40;99.90;;;;;;5034065;28;20447;-90
2021/03/21 12:06:30;;;;;;;8.87;6.67;;;5.30;99.90;;;;;;5035624;28;20508;-89
2021/03/21 12:08:57;;;;;;;3.47;3.07;;;5.30;99.90;;;;;;5033034;28;20857;-90
2021/03/21 12:11:37;;;;;;;8.00;6.27;;;5.00;99.90;;;;;;5032226;28;20455;-92
2021/03/21 12:14:40;;;;;;;8.80;7.57;;;5.00;99.90;;;;;;5035639;28;20981;-91
2021/03/21 12:17:39;;;;;;;7.77;6.10;;;5.10;99.90;;;;;;5032542;28;20497;-89
2021/03/21 12:20:38;;;;;;;9.30;6.83;;;5.10;99.90;;;;;;4999852;28;20822;-90
2021/03/21 12:23:05;;;;;;;11.17;7.30;;;5.10;99.90;;;;;;5033069;28;20486;-90
2021/03/21 12:25:34;;;;;;;5.97;4.60;;;5.20;99.90;;;;;;5035831;28;20446;-90
2021/03/21 12:28:21;;;;;;;8.00;5.90;;;5.30;99.90;;;;;;5034625;28;20456;-89
2021/03/21 12:30:52;;;;;;;7.20;5.30;;;5.30;99.90;;;;;;5032187;28;20443;-90
2021/03/21 12:33:32;;;;;;;1.03;0.90;;;5.40;99.90;;;;;;5035234;28;20943;-88
2021/03/21 12:36:18;;;;;;;6.07;4.40;;;5.30;99.90;;;;;;5032718;28;20451;-88
2021/03/21 12:38:48;;;;;;;5.20;4.40;;;5.30;99.90;;;;;;5034671;28;20447;-88
2021/03/21 12:41:33;;;;;;;4.03;2.60;;;5.50;99.90;;;;;;5033265;28;20871;-88
2021/03/21 12:44:22;;;;;;;5.37;4.20;;;5.70;99.90;;;;;;5034271;28;20927;-88
2021/03/21 12:46:51;;;;;;;3.50;2.03;;;5.70;99.90;;;;;;5031776;28;20461;-88
2021/03/21 12:49:43;;;;;;;4.13;3.57;;;5.60;99.90;;;;;;5036543;28;20443;-92
2021/03/21 12:52:13;;;;;;;3.43;2.70;;;5.40;99.90;;;;;;5035501;28;20454;-89
2021/03/21 12:54:41;;;;;;;4.00;2.97;;;5.50;99.90;;;;;;5031726;28;20436;-92
2021/03/21 12:57:12;;;;;;;5.03;3.17;;;5.40;99.90;;;;;;5033364;28;20499;-90
2021/03/21 12:59:42;;;;;;;4.17;3.50;;;5.40;99.90;;;;;;5031000;28;20513;-88
2021/03/21 13:02:18;;;;;;;3.03;2.27;;;5.50;99.90;;;;;;5033993;28;20514;-85
2021/03/21 13:04:44;;;;;;;3.77;3.23;;;5.70;99.90;;;;;;5032292;28;20459;-89
2021/03/21 13:07:12;;;;;;;3.50;2.87;;;5.70;99.90;;;;;;5033361;28;20474;-87
2021/03/21 13:09:39;;;;;;;4.67;3.23;;;5.50;99.90;;;;;;5033543;28;20451;-88
2021/03/21 13:12:06;;;;;;;4.07;3.53;;;5.50;99.90;;;;;;5032415;28;20451;-87
2021/03/21 13:14:32;;;;;;;4.10;3.30;;;5.70;99.90;;;;;;5033516;28;20565;-88
2021/03/21 13:16:59;;;;;;;4.87;3.10;;;5.70;99.90;;;;;;5033731;28;20604;-88
2021/03/21 13:19:25;;;;;;;11.60;7.10;;;5.90;99.90;;;;;;5027614;28;20977;-88
2021/03/21 13:21:52;;;;;;;6.87;4.43;;;5.60;99.90;;;;;;5030705;28;20475;-88
2021/03/21 13:24:19;;;;;;;4.17;3.60;;;5.70;99.90;;;;;;5032760;28;20812;-88
2021/03/21 13:26:45;;;;;;;3.77;2.93;;;5.70;99.90;;;;;;5029205;28;20452;-88
2021/03/21 13:29:11;;;;;;;4.37;3.70;;;5.70;99.90;;;;;;5026800;28;20848;-88
2021/03/21 13:31:41;;;;;;;5.80;4.40;;;5.60;99.90;;;;;;5029773;28;20788;-87
2021/03/21 13:34:07;;;;;;;5.30;4.00;;;5.60;99.90;;;;;;5032922;28;20973;-87
2021/03/21 13:36:34;;;;;;;5.70;4.00;;;5.70;99.90;;;;;;5032819;28;20486;-87
2021/03/21 13:39:00;;;;;;;5.23;4.10;;;5.60;99.90;;;;;;5029803;28;20452;-87
2021/03/21 13:41:27;;;;;;;4.87;3.97;;;5.60;99.90;;;;;;5031769;28;20458;-87
2021/03/21 13:43:54;;;;;;;4.07;3.63;;;5.70;99.90;;;;;;5032469;28;20650;-87
2021/03/21 13:46:21;;;;;;;7.00;4.10;;;5.70;99.90;;;;;;5032734;28;20459;-88